Time;durP1;ratioP1;P1;durP2;ratioP2;P2;SDS_P1;SDS_P2;PMS_P1;PMS_P2;Temp;Humidity;BMP_temperature;BMP_pressure;BME280_temperature;BME280_humidity;BME280_pressure;Samples;Min_cycle;Max_cycle;Signal;HPM_P1;HPM_P2
2021/09/03 00:01:45;;;;;;;15.77;14.27;;;;;;;19.19;52.42;95881.06;5010946;28;20033;-79
2021/09/03 00:04:11;;;;;;;16.02;14.48;;;;;;;19.02;52.46;95862.41;5012639;28;20021;-77
2021/09/03 00:06:36;;;;;;;16.60;15.02;;;;;;;19.04;52.63;95873.66;4992759;28;20052;-80
2021/09/03 00:09:01;;;;;;;18.33;16.02;;;;;;;19.03;52.42;95871.28;5009162;28;20388;-79
2021/09/03 00:11:27;;;;;;;17.40;15.68;;;;;;;18.92;52.68;95855.59;5009437;28;20149;-79
2021/09/03 00:13:52;;;;;;;18.52;16.20;;;;;;;18.99;52.78;95870.38;5009340;28;20514;-79
2021/09/03 00:16:18;;;;;;;17.27;15.43;;;;;;;18.72;53.58;95858.41;5015116;28;20026;-78
2021/09/03 00:18:46;;;;;;;16.02;14.48;;;;;;;18.90;53.37;95868.63;5012578;28;20084;-79
2021/09/03 00:21:11;;;;;;;18.42;16.58;;;;;;;18.94;53.02;95869.53;4994772;28;20054;-79
2021/09/03 00:23:36;;;;;;;16.67;14.98;;;;;;;18.96;53.03;95867.25;4996084;28;20128;-79
2021/09/03 00:26:02;;;;;;;20.00;17.73;;;;;;;18.88;52.61;95864.69;4996267;28;20045;-79
2021/09/03 00:28:27;;;;;;;20.88;16.35;;;;;;;18.81;52.83;95859.09;5015164;28;20026;-78
2021/09/03 00:30:53;;;;;;;19.70;16.73;;;;;;;18.89;53.15;95879.75;5013392;28;20049;-79
2021/09/03 00:33:18;;;;;;;18.02;16.10;;;;;;;18.70;53.30;95854.16;4996067;28;20038;-79
2021/09/03 00:35:43;;;;;;;20.15;17.85;;;;;;;18.76;52.93;95862.78;4995687;28;20044;-80
2021/09/03 00:38:09;;;;;;;18.65;16.75;;;;;;;18.80;53.06;95865.59;4995971;28;20607;-78
2021/09/03 00:40:34;;;;;;;17.98;16.02;;;;;;;18.81;52.97;95880.66;5012913;28;20053;-78
2021/09/03 00:42:59;;;;;;;18.10;15.88;;;;;;;18.57;53.16;95835.59;5015653;28;20029;-79
2021/09/03 00:45:25;;;;;;;19.13;17.02;;;;;;;18.66;52.99;95853.22;5013381;28;20096;-79
2021/09/03 00:47:50;;;;;;;21.27;18.08;;;;;;;18.61;53.13;95850.75;5013208;28;20073;-79
2021/09/03 00:50:16;;;;;;;21.17;17.30;;;;;;;18.63;53.29;95859.31;5012619;28;20118;-79
2021/09/03 00:52:41;;;;;;;23.58;19.77;;;;;;;18.64;53.17;95855.47;4996176;28;20018;-79
2021/09/03 00:55:07;;;;;;;22.50;18.95;;;;;;;18.57;53.41;95849.84;5015660;28;20037;-79
2021/09/03 00:57:33;;;;;;;23.30;17.10;;;;;;;18.54;53.19;95844.38;5012996;28;20034;-79
2021/09/03 00:59:59;;;;;;;22.80;18.92;;;;;;;18.54;53.47;95845.16;4995220;28;20030;-78
2021/09/03 01:02:24;;;;;;;22.02;18.75;;;;;;;18.52;53.36;95841.22;5013325;28;20125;-82
2021/09/03 01:04:50;;;;;;;20.83;18.55;;;;;;;18.58;53.47;95851.44;5013234;28;20026;-79
2021/09/03 01:07:15;;;;;;;22.35;18.95;;;;;;;18.41;53.50;95830.88;5014454;28;20507;-79
2021/09/03 01:09:40;;;;;;;28.85;19.83;;;;;;;18.51;53.28;95837.75;4995398;28;20642;-79
2021/09/03 01:12:06;;;;;;;19.85;17.73;;;;;;;18.38;53.37;95820.81;5013212;28;20125;-78
2021/09/03 01:14:31;;;;;;;26.05;18.40;;;;;;;18.41;53.35;95824.72;5012981;28;20030;-79
2021/09/03 01:16:57;;;;;;;25.05;20.13;;;;;;;18.40;53.22;95833.94;5013098;28;20108;-81
2021/09/03 01:19:23;;;;;;;24.13;20.02;;;;;;;18.42;53.67;95826.28;5014560;28;20036;-79
2021/09/03 01:21:50;;;;;;;19.90;17.60;;;;;;;18.34;54.12;95840.66;5012235;28;20030;-79
2021/09/03 01:24:15;;;;;;;19.55;17.48;;;;;;;18.28;53.72;95813.19;5012909;28;20046;-78
2021/09/03 01:26:53;;;;;;;22.50;19.38;;;;;;;18.45;53.37;95845.25;5011883;28;20064;-78
2021/09/03 01:29:18;;;;;;;24.55;18.27;;;;;;;18.22;53.48;95817.22;4995130;28;20048;-78
2021/09/03 01:31:44;;;;;;;21.48;18.80;;;;;;;18.25;53.53;95826.53;4995086;28;20113;-79
2021/09/03 01:34:09;;;;;;;26.95;19.50;;;;;;;18.33;53.63;95844.50;4996953;28;20058;-79
2021/09/03 01:36:35;;;;;;;23.95;18.65;;;;;;;17.99;54.00;95816.06;5011391;28;20108;-78
2021/09/03 01:39:01;;;;;;;30.20;22.05;;;;;;;18.17;53.77;95833.59;4993645;28;20046;-78
2021/09/03 01:41:27;;;;;;;23.52;19.65;;;;;;;17.88;53.79;95810.31;5011555;28;20038;-79
2021/09/03 01:43:52;;;;;;;22.63;18.35;;;;;;;17.97;53.65;95810.25;5011298;28;20037;-82
2021/09/03 01:46:19;;;;;;;27.02;20.65;;;;;;;18.22;53.61;95848.72;5013556;28;20029;-81
2021/09/03 01:48:45;;;;;;;21.83;18.75;;;;;;;17.77;54.04;95815.34;5011148;28;20042;-80
2021/09/03 01:51:10;;;;;;;22.23;18.73;;;;;;;18.04;53.84;95848.94;5010933;28;20034;-81
2021/09/03 01:53:36;;;;;;;22.75;17.67;;;;;;;18.00;53.78;95834.56;5011431;28;20121;-80
2021/09/03 01:56:01;;;;;;;29.40;20.42;;;;;;;17.95;53.76;95837.47;4993883;28;20059;-79
2021/09/03 01:58:26;;;;;;;26.23;20.15;;;;;;;17.95;53.85;95842.84;4995731;28;20022;-81
2021/09/03 02:00:52;;;;;;;30.77;20.80;;;;;;;18.03;53.86;95852.75;5011249;28;20511;-81
2021/09/03 02:03:17;;;;;;;23.08;19.25;;;;;;;17.89;54.05;95841.50;5011380;28;20407;-80
2021/09/03 02:05:43;;;;;;;26.63;20.23;;;;;;;18.04;53.71;95840.06;5010799;28;20046;-80
2021/09/03 02:08:09;;;;;;;28.10;20.65;;;;;;;18.01;53.71;95838.81;4993366;28;20030;-79
2021/09/03 02:10:34;;;;;;;30.63;22.02;;;;;;;17.75;53.70;95804.13;4993440;28;20487;-80
2021/09/03 02:12:59;;;;;;;37.72;23.90;;;;;;;17.91;53.66;95833.88;5013199;28;20022;-81
2021/09/03 02:15:25;;;;;;;23.70;19.58;;;;;;;17.93;53.65;95837.03;4993640;28;20081;-81
2021/09/03 02:17:51;;;;;;;23.67;18.33;;;;;;;17.86;53.63;95826.00;4993661;28;20084;-81
2021/09/03 02:20:16;;;;;;;19.10;17.00;;;;;;;17.74;53.54;95812.53;4992603;28;20046;-80
2021/09/03 02:22:42;;;;;;;19.98;17.00;;;;;;;17.82;53.43;95827.81;5010271;28;20097;-80
2021/09/03 02:25:08;;;;;;;20.05;17.17;;;;;;;17.76;53.18;95816.47;5012600;28;20430;-80
2021/09/03 02:27:33;;;;;;;23.50;17.38;;;;;;;17.78;53.31;95825.00;5011067;28;20042;-80
2021/09/03 02:29:58;;;;;;;20.90;17.08;;;;;;;17.72;53.06;95817.44;4992869;28;20117;-79
2021/09/03 02:32:24;;;;;;;27.77;19.23;;;;;;;17.61;53.15;95799.03;5010968;28;20026;-80
2021/09/03 02:34:49;;;;;;;21.25;17.73;;;;;;;17.75;53.07;95819.47;4955586;28;1082309;-79
2021/09/03 02:37:15;;;;;;;25.67;20.58;;;;;;;17.74;52.94;95828.69;5012591;28;20030;-80
2021/09/03 02:39:40;;;;;;;25.83;19.73;;;;;;;17.64;52.87;95819.88;5011041;28;20487;-79
2021/09/03 02:42:06;;;;;;;26.30;18.50;;;;;;;17.57;53.19;95808.09;4994109;28;20053;-79
2021/09/03 02:44:31;;;;;;;27.35;20.08;;;;;;;17.52;53.18;95814.47;5011618;28;20778;-79
2021/09/03 02:46:57;;;;;;;23.52;19.77;;;;;;;17.55;53.49;95827.25;5011558;28;20030;-80
2021/09/03 02:49:22;;;;;;;27.02;20.30;;;;;;;17.47;53.69;95803.13;5013172;28;20022;-80
2021/09/03 02:51:47;;;;;;;35.67;23.20;;;;;;;17.39;53.71;95805.56;4993396;28;20030;-80
2021/09/03 02:54:13;;;;;;;29.08;21.08;;;;;;;17.45;53.40;95821.50;4994065;28;20083;-79
2021/09/03 02:56:38;;;;;;;27.15;19.75;;;;;;;17.46;53.43;95813.09;5011469;28;20040;-78
2021/09/03 02:59:03;;;;;;;23.30;19.35;;;;;;;17.34;53.50;95803.06;5010776;28;20070;-80
2021/09/03 03:01:29;;;;;;;31.17;22.02;;;;;;;17.34;53.44;95795.00;5013424;28;20662;-78
2021/09/03 03:03:54;;;;;;;31.60;22.63;;;;;;;17.27;53.80;95788.59;4994099;28;20042;-80
2021/09/03 03:06:20;;;;;;;25.88;18.73;;;;;;;17.18;53.61;95779.81;5010846;28;20042;-79
2021/09/03 03:08:45;;;;;;;35.28;24.05;;;;;;;17.34;53.56;95804.97;4993320;28;20092;-79
2021/09/03 03:11:11;;;;;;;38.03;25.65;;;;;;;17.32;53.59;95791.09;5011202;28;20045;-80
2021/09/03 03:13:36;;;;;;;29.85;21.65;;;;;;;17.36;53.45;95792.78;5011036;28;20034;-80
2021/09/03 03:16:01;;;;;;;37.92;23.83;;;;;;;17.35;53.49;95801.16;4996254;28;20026;-79
2021/09/03 03:18:27;;;;;;;33.63;22.85;;;;;;;17.29;53.63;95784.47;5011026;28;20050;-79
2021/09/03 03:20:53;;;;;;;38.58;23.75;;;;;;;17.26;53.92;95779.75;5010668;28;20076;-80
2021/09/03 03:23:19;;;;;;;26.27;19.90;;;;;;;17.32;53.48;95791.88;4993795;28;20045;-80
2021/09/03 03:25:46;;;;;;;32.42;21.95;;;;;;;17.34;53.73;95789.63;5010902;28;20045;-79
2021/09/03 03:28:11;;;;;;;32.25;20.23;;;;;;;17.36;53.35;95802.75;4995509;28;20037;-79
2021/09/03 03:30:37;;;;;;;25.65;21.08;;;;;;;17.36;53.44;95797.38;5010634;28;20042;-79
2021/09/03 03:33:03;;;;;;;36.00;24.00;;;;;;;17.27;53.91;95784.00;5011156;28;20565;-79
2021/09/03 03:35:29;;;;;;;33.75;23.58;;;;;;;17.24;53.94;95779.28;5010960;28;20137;-79
2021/09/03 03:37:56;;;;;;;39.10;25.00;;;;;;;17.22;53.92;95778.06;4992742;28;20038;-79
2021/09/03 03:40:21;;;;;;;35.53;24.50;;;;;;;17.25;53.68;95780.88;4995084;28;20022;-79
2021/09/03 03:42:47;;;;;;;43.22;27.02;;;;;;;17.26;54.04;95800.47;4992503;28;20038;-80
2021/09/03 03:45:12;;;;;;;38.17;25.05;;;;;;;17.33;54.18;95795.34;5011063;28;20026;-79
2021/09/03 03:47:38;;;;;;;34.05;24.33;;;;;;;17.10;54.18;95768.84;5010845;28;20446;-80
2021/09/03 03:50:05;;;;;;;47.47;27.27;;;;;;;17.32;54.51;95799.94;4994949;28;20423;-79
2021/09/03 03:52:30;;;;;;;46.58;27.42;;;;;;;17.38;54.03;95809.38;5016187;28;20459;-80
2021/09/03 03:54:55;;;;;;;51.35;29.30;;;;;;;17.22;53.90;95778.06;5014665;28;20137;-80
2021/09/03 03:57:21;;;;;;;34.13;23.17;;;;;;;17.25;54.03;95790.81;5014635;28;20042;-80
2021/09/03 03:59:46;;;;;;;28.38;20.83;;;;;;;17.31;53.95;95813.72;4996594;28;20049;-80
2021/09/03 04:02:11;;;;;;;29.88;20.75;;;;;;;17.20;53.85;95793.72;5014406;28;20044;-79
2021/09/03 04:04:37;;;;;;;23.73;18.73;;;;;;;17.25;53.87;95790.81;5014178;28;20525;-79
2021/09/03 04:07:02;;;;;;;28.23;17.88;;;;;;;17.10;53.50;95778.81;5015132;28;20113;-79
2021/09/03 04:09:28;;;;;;;24.33;17.85;;;;;;;17.00;53.33;95771.94;5011672;28;20133;-79
2021/09/03 04:11:53;;;;;;;22.85;19.27;;;;;;;17.07;53.35;95771.38;4997040;28;20559;-79
2021/09/03 04:14:27;;;;;;;19.02;16.73;;;;;;;17.00;53.37;95776.53;5014180;28;20117;-79
2021/09/03 04:16:53;;;;;;;33.08;21.67;;;;;;;16.92;53.21;95762.03;5014025;28;20042;-80
2021/09/03 04:19:18;;;;;;;20.85;18.33;;;;;;;16.98;53.15;95784.09;5015538;28;20030;-76
2021/09/03 04:21:43;;;;;;;26.55;19.27;;;;;;;16.76;53.38;95758.38;5011950;28;20058;-70
2021/09/03 04:24:09;;;;;;;31.85;22.95;;;;;;;16.70;53.42;95757.75;5016728;28;20512;-77
2021/09/03 04:26:35;;;;;;;36.53;24.33;;;;;;;16.70;53.19;95756.97;4997795;28;20133;-77
2021/09/03 04:29:00;;;;;;;37.38;23.38;;;;;;;16.94;53.26;95792.06;5012072;28;20042;-72
2021/09/03 04:31:25;;;;;;;33.58;22.52;;;;;;;16.86;53.57;95784.84;4995991;28;20057;-71
2021/09/03 04:33:50;;;;;;;37.50;23.85;;;;;;;16.84;53.84;95793.22;5010815;28;20038;-71
2021/09/03 04:36:16;;;;;;;32.67;22.42;;;;;;;16.92;53.86;95790.78;4992791;28;20038;-73
2021/09/03 04:38:41;;;;;;;38.95;25.02;;;;;;;16.90;53.47;95780.38;4993049;28;20070;-71
2021/09/03 04:41:07;;;;;;;33.47;23.55;;;;;;;17.02;53.40;95798.47;5011218;28;20088;-71
2021/09/03 04:43:32;;;;;;;33.67;23.95;;;;;;;17.00;53.68;95795.34;5013826;28;20030;-73
2021/09/03 04:45:57;;;;;;;38.10;23.65;;;;;;;17.01;53.39;95796.91;5011159;28;20038;-72
2021/09/03 04:48:23;;;;;;;24.05;19.02;;;;;;;17.04;53.31;95791.63;5010589;28;20045;-71
2021/09/03 04:50:48;;;;;;;28.80;21.23;;;;;;;17.06;53.40;95794.78;5010286;28;20038;-73
2021/09/03 04:53:14;;;;;;;30.77;20.80;;;;;;;17.12;53.40;95798.84;5010855;28;20525;-73
2021/09/03 04:55:39;;;;;;;34.17;22.75;;;;;;;17.12;53.32;95793.47;5010828;28;20041;-72
2021/09/03 04:58:04;;;;;;;32.35;21.10;;;;;;;17.17;53.34;95789.78;4995743;28;20086;-72
2021/09/03 05:00:30;;;;;;;31.77;21.77;;;;;;;17.26;53.33;95805.84;4992777;28;20407;-72
2021/09/03 05:02:55;;;;;;;26.73;21.38;;;;;;;17.26;53.16;95793.19;4993100;28;20034;-72
2021/09/03 05:05:20;;;;;;;23.17;18.58;;;;;;;17.12;53.58;95798.06;5010421;28;20042;-72
2021/09/03 05:07:46;;;;;;;25.80;21.05;;;;;;;17.20;53.37;95772.22;5009564;28;20055;-72
2021/09/03 05:10:12;;;;;;;23.83;17.63;;;;;;;17.40;53.35;95798.28;5012345;28;20079;-72
2021/09/03 05:12:39;;;;;;;24.63;18.48;;;;;;;17.43;53.39;95797.63;5010453;28;20058;-73
2021/09/03 05:15:14;;;;;;;24.52;18.52;;;;;;;17.45;53.28;95781.94;5010424;28;20046;-72
2021/09/03 05:17:42;;;;;;;20.60;18.02;;;;;;;17.60;53.26;95789.38;5010873;28;20364;-72
2021/09/03 05:20:09;;;;;;;31.50;19.45;;;;;;;17.44;53.03;95747.31;5002379;28;20034;-72
2021/09/03 05:22:34;;;;;;;23.25;18.58;;;;;;;17.57;53.38;95779.28;5009546;28;20479;-72
2021/09/03 05:25:02;;;;;;;28.17;18.73;;;;;;;17.65;53.33;95786.47;4994810;28;20112;-72
2021/09/03 05:27:28;;;;;;;20.42;18.23;;;;;;;17.86;53.24;95791.03;4991833;28;20445;-72
2021/09/03 05:29:53;;;;;;;18.33;16.42;;;;;;;17.94;53.03;95795.53;4990773;28;20042;-72
2021/09/03 05:32:19;;;;;;;21.85;19.30;;;;;;;18.00;52.97;95778.03;5010702;28;20068;-73
2021/09/03 05:34:44;;;;;;;23.00;18.50;;;;;;;18.10;52.75;95780.28;5009027;28;20026;-72
2021/09/03 05:37:09;;;;;;;18.38;16.48;;;;;;;18.22;52.56;95784.09;5011919;28;20036;-74
2021/09/03 05:39:35;;;;;;;19.83;16.00;;;;;;;18.23;52.34;95791.06;4991223;28;20046;-71
2021/09/03 05:42:00;;;;;;;25.40;19.35;;;;;;;18.36;52.26;95790.72;4992541;28;20052;-71
2021/09/03 05:44:26;;;;;;;24.75;19.42;;;;;;;18.42;52.23;95780.50;4992510;28;20407;-71
2021/09/03 05:46:51;;;;;;;18.30;16.30;;;;;;;18.65;52.00;95795.06;4992121;28;20034;-72
2021/09/03 05:49:18;;;;;;;20.67;16.02;;;;;;;18.65;51.80;95788.91;5011472;28;20029;-72
2021/09/03 05:51:43;;;;;;;17.63;15.82;;;;;;;18.72;51.87;95778.34;5009522;28;20049;-72
2021/09/03 05:54:08;;;;;;;22.33;17.58;;;;;;;18.86;51.04;95781.47;5010062;28;20038;-71
2021/09/03 05:56:35;;;;;;;16.75;14.18;;;;;;;18.99;51.42;95782.22;5010034;28;20509;-71
2021/09/03 05:59:02;;;;;;;20.13;16.70;;;;;;;19.03;51.22;95783.09;4991702;28;20395;-72
2021/09/03 06:01:27;;;;;;;17.10;14.82;;;;;;;19.00;51.04;95764.94;4994422;28;20026;-71
2021/09/03 06:03:52;;;;;;;18.50;15.07;;;;;;;19.13;50.80;95777.22;5009636;28;20491;-73
2021/09/03 06:06:18;;;;;;;17.00;15.10;;;;;;;19.31;50.50;95791.22;5010011;28;20758;-73
2021/09/03 06:08:43;;;;;;;16.25;14.73;;;;;;;19.39;50.60;95792.97;5008847;28;20076;-72
2021/09/03 06:11:08;;;;;;;20.77;16.73;;;;;;;19.49;50.37;95791.69;5009930;28;20030;-72
2021/09/03 06:13:34;;;;;;;17.10;15.25;;;;;;;19.47;50.33;95773.16;5009098;28;20022;-75
2021/09/03 06:16:00;;;;;;;19.92;15.68;;;;;;;19.66;50.98;95783.31;5012221;28;20041;-74
2021/09/03 06:18:25;;;;;;;17.08;15.30;;;;;;;19.63;50.66;95792.09;5009506;28;20036;-66
2021/09/03 06:20:51;;;;;;;17.98;16.20;;;;;;;19.67;50.48;95766.00;4991226;28;20496;-72
2021/09/03 06:23:16;;;;;;;20.48;18.08;;;;;;;20.01;50.25;95796.13;5008876;28;20136;-71
2021/09/03 06:25:41;;;;;;;16.40;14.70;;;;;;;20.08;50.21;95798.25;5009331;28;20105;-71
2021/09/03 06:28:07;;;;;;;18.40;15.43;;;;;;;20.20;50.00;95792.75;5011210;28;20109;-71
2021/09/03 06:30:32;;;;;;;20.58;16.10;;;;;;;20.27;50.14;95792.94;4991186;28;20120;-72
2021/09/03 06:32:57;;;;;;;16.90;15.20;;;;;;;20.08;49.69;95780.13;4991782;28;20048;-72
2021/09/03 06:35:23;;;;;;;18.38;15.85;;;;;;;19.91;50.51;95797.44;4991620;28;20072;-71
2021/09/03 06:37:48;;;;;;;16.33;14.70;;;;;;;20.33;49.65;95796.91;5008684;28;20034;-72
2021/09/03 06:40:13;;;;;;;17.00;14.63;;;;;;;20.39;49.20;95781.22;5010721;28;20072;-73
2021/09/03 06:42:39;;;;;;;15.40;13.70;;;;;;;20.15;49.86;95785.69;5009275;28;20045;-72
2021/09/03 06:45:04;;;;;;;16.65;14.57;;;;;;;20.25;49.79;95782.44;5008994;28;20038;-70
2021/09/03 06:47:30;;;;;;;15.32;13.88;;;;;;;20.01;50.61;95785.31;5008994;28;20033;-70
2021/09/03 06:49:56;;;;;;;15.80;14.20;;;;;;;20.44;50.11;95786.34;5008891;28;20491;-70
2021/09/03 06:52:30;;;;;;;15.20;13.55;;;;;;;20.55;49.47;95783.94;5010700;28;20073;-70
2021/09/03 06:54:59;;;;;;;15.50;13.88;;;;;;;20.68;49.14;95786.19;5009040;28;20049;-70
2021/09/03 06:57:25;;;;;;;15.32;13.77;;;;;;;20.65;49.14;95786.88;5009273;28;20395;-70
2021/09/03 06:59:51;;;;;;;16.85;14.73;;;;;;;20.63;49.13;95789.16;5008689;28;20034;-70
2021/09/03 07:02:16;;;;;;;21.17;14.32;;;;;;;20.60;49.09;95792.53;5008801;28;20635;-70
2021/09/03 07:04:42;;;;;;;14.30;13.02;;;;;;;20.61;48.78;95782.50;4991253;28;20026;-69
2021/09/03 07:07:08;;;;;;;16.45;13.63;;;;;;;20.20;49.79;95777.31;5010101;28;20068;-69
2021/09/03 07:09:33;;;;;;;15.85;13.05;;;;;;;20.30;50.11;95792.22;5008276;28;20129;-69
2021/09/03 07:11:58;;;;;;;15.05;13.68;;;;;;;20.45;50.36;95801.44;5008799;28;20034;-68
2021/09/03 07:14:24;;;;;;;16.25;14.75;;;;;;;20.44;49.51;95797.94;4990988;28;20045;-68
2021/09/03 07:16:49;;;;;;;15.88;13.63;;;;;;;20.57;49.57;95804.03;4990897;28;20029;-69
2021/09/03 07:19:14;;;;;;;14.23;12.90;;;;;;;20.81;49.02;95802.25;5010175;28;20033;-71
2021/09/03 07:21:40;;;;;;;13.00;11.73;;;;;;;21.07;48.43;95791.63;4990783;28;20042;-70
2021/09/03 07:24:05;;;;;;;14.43;13.18;;;;;;;21.04;48.57;95784.22;5008228;28;20097;-70
2021/09/03 07:26:31;;;;;;;14.30;12.75;;;;;;;21.15;48.65;95790.63;4994711;28;20030;-70
2021/09/03 07:28:57;;;;;;;13.48;12.18;;;;;;;21.47;48.04;95798.63;5011983;28;20069;-70
2021/09/03 07:31:23;;;;;;;14.23;12.82;;;;;;;21.36;48.09;95789.53;5014355;28;20030;-69
2021/09/03 07:33:49;;;;;;;12.40;11.30;;;;;;;21.47;48.04;95785.09;4994553;28;20495;-70
2021/09/03 07:36:15;;;;;;;14.05;12.75;;;;;;;21.62;47.76;95786.13;5012414;28;20045;-69
2021/09/03 07:38:40;;;;;;;13.43;12.18;;;;;;;21.46;47.67;95770.00;4993461;28;20045;-69
2021/09/03 07:41:06;;;;;;;12.73;11.52;;;;;;;21.73;47.42;95758.09;4994676;28;20572;-69
2021/09/03 07:43:31;;;;;;;16.08;13.30;;;;;;;21.78;47.04;95774.06;5014292;28;20026;-68
2021/09/03 07:45:57;;;;;;;13.13;12.02;;;;;;;21.95;47.03;95780.13;5011985;28;20034;-69
2021/09/03 07:48:23;;;;;;;14.02;12.52;;;;;;;22.02;46.82;95761.31;5012118;28;20133;-69
2021/09/03 07:50:49;;;;;;;13.52;12.32;;;;;;;21.97;46.80;95756.97;5011919;28;20688;-69
2021/09/03 07:53:14;;;;;;;12.23;11.02;;;;;;;22.34;46.45;95769.19;5011453;28;20042;-69
2021/09/03 07:55:40;;;;;;;13.93;11.23;;;;;;;22.37;46.31;95765.72;5011999;28;20036;-69
2021/09/03 07:58:06;;;;;;;11.77;10.77;;;;;;;22.53;46.14;95767.16;4996207;28;20565;-68
2021/09/03 08:00:33;;;;;;;12.27;10.65;;;;;;;21.92;46.11;95778.94;4993726;28;20042;-69
2021/09/03 08:02:59;;;;;;;12.70;11.50;;;;;;;22.11;46.47;95771.91;4993571;28;20491;-69
2021/09/03 08:05:24;;;;;;;11.45;10.38;;;;;;;22.49;45.65;95785.31;5011911;28;20048;-69
2021/09/03 08:07:49;;;;;;;12.25;11.15;;;;;;;22.57;45.44;95778.03;5011230;28;20696;-72
2021/09/03 08:10:16;;;;;;;11.10;9.85;;;;;;;22.68;45.40;95781.72;5013468;28;20659;-73
2021/09/03 08:12:42;;;;;;;11.18;10.18;;;;;;;22.70;45.17;95784.03;5011893;28;20061;-73
2021/09/03 08:15:08;;;;;;;15.23;10.88;;;;;;;22.39;46.14;95780.50;5011619;28;20068;-73
2021/09/03 08:17:34;;;;;;;11.73;10.70;;;;;;;22.78;45.35;95780.31;4994163;28;20111;-73
2021/09/03 08:20:00;;;;;;;11.80;10.70;;;;;;;22.55;45.50;95781.13;5011021;28;20061;-73
2021/09/03 08:22:26;;;;;;;12.60;10.35;;;;;;;22.80;45.01;95778.78;5013354;28;20030;-72
2021/09/03 08:24:52;;;;;;;11.90;10.90;;;;;;;22.79;44.88;95787.28;5011387;28;20050;-75
2021/09/03 08:27:18;;;;;;;11.80;10.70;;;;;;;22.95;44.87;95782.47;5011383;28;20126;-69
2021/09/03 08:29:44;;;;;;;13.50;10.63;;;;;;;22.27;46.20;95781.50;5010877;28;20030;-72
2021/09/03 08:32:10;;;;;;;11.73;10.38;;;;;;;22.67;45.38;95766.56;5013258;28;20367;-71
2021/09/03 08:34:35;;;;;;;11.38;10.25;;;;;;;23.22;45.22;95777.00;5012068;28;20490;-73
2021/09/03 08:37:01;;;;;;;13.52;10.75;;;;;;;23.01;44.14;95782.94;4995306;28;20034;-73
2021/09/03 08:39:26;;;;;;;11.27;10.23;;;;;;;22.14;46.67;95785.53;4992476;28;20511;-72
2021/09/03 08:41:52;;;;;;;10.77;9.80;;;;;;;23.11;44.68;95790.44;5011705;28;20053;-74
2021/09/03 08:44:17;;;;;;;10.70;9.60;;;;;;;23.36;44.19;95790.75;4993975;28;20038;-74
2021/09/03 08:46:44;;;;;;;11.45;10.35;;;;;;;23.03;44.36;95784.16;5011368;28;20357;-74
2021/09/03 08:49:10;;;;;;;11.65;10.55;;;;;;;23.20;44.59;95799.09;4995279;28;20486;-72
2021/09/03 08:51:35;;;;;;;10.70;9.80;;;;;;;23.67;43.39;95792.28;5011540;28;20041;-73
2021/09/03 08:54:01;;;;;;;10.15;9.27;;;;;;;23.44;43.75;95778.81;5011064;28;20042;-73
2021/09/03 08:56:26;;;;;;;10.20;9.25;;;;;;;23.78;43.00;95779.56;5011077;28;20042;-73
2021/09/03 08:58:52;;;;;;;11.52;10.25;;;;;;;23.45;43.39;95782.31;5010834;28;20077;-73
2021/09/03 09:01:18;;;;;;;11.15;9.60;;;;;;;23.96;43.51;95789.84;5013365;28;20121;-73
2021/09/03 09:03:44;;;;;;;10.60;9.40;;;;;;;23.94;42.77;95790.19;5011679;28;20046;-74
2021/09/03 09:06:17;;;;;;;11.05;9.98;;;;;;;23.91;43.10;95782.81;5011098;28;20622;-72
2021/09/03 09:08:42;;;;;;;10.27;9.35;;;;;;;23.93;42.55;95785.94;5010110;28;20076;-73
2021/09/03 09:11:12;;;;;;;13.75;9.32;;;;;;;24.12;41.85;95787.66;5011109;28;20125;-73
2021/09/03 09:13:43;;;;;;;10.25;9.27;;;;;;;24.27;42.16;95774.97;5010900;28;20030;-74
2021/09/03 09:16:19;;;;;;;9.75;8.60;;;;;;;24.35;41.89;95790.97;4995592;28;20018;-73
2021/09/03 09:18:53;;;;;;;11.05;9.93;;;;;;;24.54;41.36;95781.78;4993278;28;20066;-73
2021/09/03 09:21:28;;;;;;;10.45;9.45;;;;;;;24.61;41.41;95783.78;5011046;28;20073;-72
2021/09/03 09:24:08;;;;;;;10.00;9.00;;;;;;;24.63;41.55;95784.97;5010034;28;20104;-74
2021/09/03 09:26:43;;;;;;;10.73;9.80;;;;;;;24.23;41.72;95780.38;5003292;28;20045;-73
2021/09/03 09:29:22;;;;;;;10.57;9.25;;;;;;;24.17;42.17;95764.78;5010447;28;20046;-73
2021/09/03 09:31:53;;;;;;;9.65;8.65;;;;;;;24.47;42.45;95770.88;5010901;28;20038;-75
2021/09/03 09:34:29;;;;;;;10.68;8.60;;;;;;;24.74;41.87;95759.78;5012579;28;20025;-74
2021/09/03 09:36:56;;;;;;;10.48;9.57;;;;;;;24.50;41.99;95758.44;5010599;28;20042;-73
2021/09/03 09:39:24;;;;;;;9.15;8.32;;;;;;;24.49;42.18;95754.94;5009565;28;20042;-76
2021/09/03 09:41:58;;;;;;;9.98;9.07;;;;;;;24.89;41.33;95764.13;5010597;28;20127;-74
2021/09/03 09:44:34;;;;;;;9.43;8.40;;;;;;;25.21;40.74;95758.06;5010540;28;20180;-72
2021/09/03 09:47:07;;;;;;;10.75;9.55;;;;;;;24.74;41.04;95762.50;5009310;28;20727;-73
2021/09/03 09:49:35;;;;;;;10.60;9.68;;;;;;;24.98;40.66;95766.47;5009786;28;20030;-71
2021/09/03 09:52:00;;;;;;;10.75;8.75;;;;;;;25.17;40.45;95751.81;5011974;28;20490;-73
2021/09/03 09:54:26;;;;;;;9.27;8.48;;;;;;;25.35;40.30;95758.91;4991960;28;20050;-73
2021/09/03 09:57:01;;;;;;;10.55;9.32;;;;;;;25.64;40.13;95764.41;5009862;28;20076;-73
2021/09/03 09:59:29;;;;;;;9.93;9.02;;;;;;;25.30;39.86;95750.34;5009457;28;20049;-72
2021/09/03 10:01:57;;;;;;;8.65;7.82;;;;;;;25.01;41.09;95754.84;5009995;28;20041;-72
2021/09/03 10:04:26;;;;;;;9.90;8.95;;;;;;;25.51;40.03;95750.38;4994388;28;20380;-73
2021/09/03 10:06:54;;;;;;;10.13;8.95;;;;;;;25.50;40.26;95748.84;5009922;28;20038;-74
2021/09/03 10:09:25;;;;;;;9.60;8.65;;;;;;;25.62;39.87;95737.56;5009821;28;20042;-74
2021/09/03 10:11:52;;;;;;;10.20;9.30;;;;;;;25.26;40.91;95744.88;5010139;28;20038;-75
2021/09/03 10:14:31;;;;;;;10.50;8.93;;;;;;;25.31;40.33;95735.53;5010151;28;20362;-74
2021/09/03 10:16:57;;;;;;;9.27;8.30;;;;;;;25.54;40.40;95751.53;4992756;28;20041;-73
2021/09/03 10:19:28;;;;;;;10.20;9.15;;;;;;;25.75;39.36;95745.41;5011261;28;20388;-73
2021/09/03 10:22:05;;;;;;;9.27;8.43;;;;;;;25.66;39.87;95743.03;4992024;28;20042;-74
2021/09/03 10:24:31;;;;;;;10.80;8.98;;;;;;;25.88;39.26;95739.19;4991546;28;20042;-73
2021/09/03 10:26:58;;;;;;;10.27;8.25;;;;;;;25.81;38.49;95736.47;5009339;28;20041;-73
2021/09/03 10:29:26;;;;;;;8.75;7.95;;;;;;;24.68;41.95;95734.09;5008983;28;20403;-73
2021/09/03 10:32:07;;;;;;;10.40;7.68;;;;;;;26.03;39.76;95731.78;5009320;28;20025;-73
2021/09/03 10:34:50;;;;;;;9.63;8.73;;;;;;;25.79;39.35;95743.44;4993650;28;20029;-73
2021/09/03 10:37:18;;;;;;;10.57;8.13;;;;;;;25.15;40.46;95735.88;5009581;28;20524;-74
2021/09/03 10:39:47;;;;;;;10.25;8.30;;;;;;;25.82;39.37;95737.25;5008895;28;20057;-75
2021/09/03 10:42:49;;;;;;;8.70;7.88;;;;;;;25.07;41.30;95745.19;5009556;28;20049;-74
2021/09/03 10:45:37;;;;;;;8.23;7.35;;;;;;;25.54;40.59;95746.09;5009782;28;20091;-74
2021/09/03 10:48:03;;;;;;;7.25;6.55;;;;;;;26.17;39.85;95729.06;5009426;28;20038;-74
2021/09/03 10:50:42;;;;;;;7.90;7.20;;;;;;;26.04;40.46;95729.84;5009352;28;20050;-74
2021/09/03 10:53:10;;;;;;;7.90;7.18;;;;;;;26.47;38.78;95729.88;5009110;28;20038;-74
2021/09/03 10:55:57;;;;;;;7.65;6.90;;;;;;;26.61;38.30;95738.78;5009712;28;20026;-77
2021/09/03 10:58:45;;;;;;;7.93;7.22;;;;;;;26.83;37.57;95725.88;5011763;28;20033;-76
2021/09/03 11:01:10;;;;;;;7.50;6.80;;;;;;;26.91;37.32;95729.34;5010606;28;20038;-76
2021/09/03 11:03:45;;;;;;;8.00;7.30;;;;;;;26.95;37.88;95724.66;4992481;28;20518;-76
2021/09/03 11:06:15;;;;;;;7.82;7.03;;;;;;;26.55;37.27;95707.59;4992696;28;20026;-75
2021/09/03 11:08:47;;;;;;;6.82;6.22;;;;;;;26.46;37.91;95714.63;5009139;28;20127;-78
2021/09/03 11:11:30;;;;;;;8.93;7.07;;;;;;;26.35;37.63;95726.31;4992068;28;20088;-76
2021/09/03 11:14:02;;;;;;;7.57;6.78;;;;;;;26.58;37.32;95716.97;4992603;28;20096;-71
2021/09/03 11:16:43;;;;;;;8.70;7.90;;;;;;;26.46;37.86;95725.56;5011676;28;20029;-72
2021/09/03 11:19:09;;;;;;;7.75;7.05;;;;;;;26.34;37.81;95722.03;4992395;28;20045;-74